FW6090 Weather Reports


time (UTC)temp
C
wind
direction
speed
KPH
gust
KPH
rain 1hr
cm
rain 24hr
cm
rain mn
cm
humidity
%
barometer
mb
20200229094457 9 125 0.0 3.2 0.00 0.00 0.00 67 1028.5
20200229091542 10 125 0.0 0.0 0.00 0.00 0.00 69 1028.8
20200229085956 9 125 0.0 3.2 0.00 0.00 0.00 69 1029.0
20200229082956 8 125 1.6 3.2 0.00 0.00 0.00 69 1029.2
20200229080009 8 125 0.0 4.8 0.00 0.00 0.00 68 1029.7
20200229074454 8 126 0.0 0.0 0.00 0.00 0.00 68 1030.0
20200229071455 10 126 3.2 6.4 0.00 0.00 0.00 66 1030.0
20200229065952 10 126 3.2 6.4 0.00 0.00 0.00 66 1030.1
20200229063002 10 160 4.8 8.0 0.00 0.00 0.00 65 1030.5
20200229060027 10 179 8.0 14.5 0.00 0.00 0.00 67 1030.5
20200229053003 8 159 4.8 6.4 0.00 0.00 0.00 64 1030.8
20200229050005 10 125 4.8 12.9 0.00 0.00 0.00 63 1030.7
20200229044448 10 141 3.2 6.4 0.00 0.00 0.00 60 1030.6
20200229041636 11 161 8.0 9.7 0.00 0.00 0.00 58 1030.6
20200229035949 12 130 8.0 16.1 0.00 0.00 0.00 56 1030.4
20200229033526 12 123 14.5 22.5 0.00 0.00 0.00 50 1029.9
20200229030135 13 128 16.1 29.0 0.00 0.00 0.00 46 1029.6
20200229024506 13 119 17.7 32.2 0.00 0.00 0.00 42 1029.3
20200229021639 13 122 19.3 35.4 0.00 0.00 0.00 41 1028.6
20200229020214 14 114 22.5 37.0 0.00 0.00 0.00 40 1028.2
20200229013223 15 130 24.1 43.5 0.00 0.00 0.00 38 1027.7
20200229010005 15 116 29.0 43.5 0.00 0.00 0.00 35 1027.4
20200229004501 16 125 24.1 48.3 0.00 0.00 0.00 34 1027.0
20200229001704 17 123 25.7 41.8 0.00 0.00 0.00 31 1027.0
20200229000202 17 107 27.4 38.6 0.00 0.00 0.00 30 1027.1
20200228231711 20 129 22.5 37.0 0.00 0.00 0.00 27 1026.7
20200228225954 20 129 25.7 35.4 0.00 0.00 0.00 25 1026.7
20200228223043 20 117 25.7 37.0 0.00 0.00 0.00 23 1026.7
20200228221527 21 144 19.3 37.0 0.00 0.00 0.00 22 1026.5
20200228214459 21 101 20.9 37.0 0.00 0.00 0.00 20 1026.5
20200228213000 21 133 20.9 38.6 0.00 0.00 0.00 18 1026.5
20200228210046 21 88 19.3 33.8 0.00 0.00 0.00 17 1027.0
20200228203228 21 126 14.5 33.8 0.00 0.00 0.00 18 1027.3
20200228201504 21 174 17.7 29.0 0.00 0.00 0.00 20 1027.5
20200228194513 20 134 16.1 29.0 0.00 0.00 0.00 23 1028.4
20200228191502 19 179 16.1 24.1 0.00 0.00 0.00 25 1028.9
20200228185945 18 152 17.7 27.4 0.00 0.00 0.00 26 1029.5
20200228182956 17 115 9.7 17.7 0.00 0.00 0.00 30 1030.2
20200228175951 16 176 8.0 17.7 0.00 0.00 0.00 32 1031.0
20200228173459 15 174 6.4 19.3 0.00 0.00 0.00 38 1031.4
20200228171458 14 141 6.4 11.3 0.00 0.00 0.00 40 1031.7
20200228165950 13 164 6.4 9.7 0.00 0.00 0.00 43 1032.0
20200228163003 12 121 3.2 12.9 0.00 0.00 0.00 45 1032.2
20200228155939 11 138 3.2 9.7 0.00 0.00 0.00 48 1031.8
20200228153021 9 134 0.0 4.8 0.00 0.00 0.00 54 1031.9
20200228151443 8 134 1.6 4.8 0.00 0.00 0.00 57 1031.8
20200228144458 5 134 1.6 4.8 0.00 0.00 0.00 64 1031.7
20200228142949 3 133 3.2 6.4 0.00 0.00 0.00 68 1031.2
20200228141448 2 60 0.0 4.8 0.00 0.00 0.00 71 1031.2
20200228133006 0 59 0.0 3.2 0.00 0.00 0.00 72 1030.5
20200228131501 1 59 0.0 4.8 0.00 0.00 0.00 72 1030.3
20200228124502 1 60 0.0 4.8 0.00 0.00 0.00 72 1030.0
20200228122958 0 60 0.0 3.2 0.00 0.00 0.00 72 1029.5
20200228120310 0 60 0.0 6.4 0.00 0.00 0.00 71 1029.3
20200228112958 2 346 0.0 4.8 0.00 0.00 0.00 70 1029.0
20200228105952 1 346 3.2 6.4 0.00 0.00 0.00 72 1028.9
20200228102954 0 346 1.6 4.8 0.00 0.00 0.00 69 1028.6
20200228100003 1 346 0.0 0.0 0.00 0.00 0.00 69 1028.6